Time;durP1;ratioP1;P1;durP2;ratioP2;P2;SDS_P1;SDS_P2;PMS_P1;PMS_P2;Temp;Humidity;BMP_temperature;BMP_pressure;BME280_temperature;BME280_humidity;BME280_pressure;Samples;Min_cycle;Max_cycle;Signal;HPM_P1;HPM_P2
2021/09/22 00:00:44;;;;;;;363.77;320.42;;;;;;;14.23;94.53;102403.00;5015835;28;20033;-36
2021/09/22 00:03:10;;;;;;;361.10;320.05;;;;;;;14.19;94.20;102399.78;5043854;28;20498;-36
2021/09/22 00:05:35;;;;;;;357.10;317.83;;;;;;;14.19;94.04;102402.47;5048028;28;20115;-36
2021/09/22 00:08:01;;;;;;;364.17;320.75;;;;;;;14.20;94.09;102408.75;5015185;28;20055;-36
2021/09/22 00:10:27;;;;;;;366.33;320.55;;;;;;;14.17;94.12;102403.66;5032857;28;20033;-36
2021/09/22 00:12:53;;;;;;;358.98;319.17;;;;;;;14.16;94.17;102408.22;5013507;28;20036;-36
2021/09/22 00:15:23;;;;;;;358.42;318.70;;;;;;;14.13;93.88;102403.13;5016039;28;20037;-36
2021/09/22 00:17:49;;;;;;;360.67;321.00;;;;;;;14.12;93.88;102397.88;5013723;28;20028;-35
2021/09/22 00:20:15;;;;;;;361.25;321.27;;;;;;;14.10;94.13;102395.31;5015376;28;20094;-36
2021/09/22 00:22:42;;;;;;;362.17;321.38;;;;;;;14.09;93.99;102396.31;5020885;28;20068;-36
2021/09/22 00:25:08;;;;;;;361.67;321.98;;;;;;;14.08;93.70;102395.47;5048147;28;20032;-36
2021/09/22 00:27:34;;;;;;;363.50;321.38;;;;;;;14.07;93.79;102396.47;5044768;28;20044;-36
2021/09/22 00:30:11;;;;;;;362.73;318.73;;;;;;;14.08;93.60;102395.47;5049509;28;20108;-36
2021/09/22 00:32:37;;;;;;;360.08;320.58;;;;;;;14.07;93.56;102391.06;5031731;28;20044;-36
2021/09/22 00:35:04;;;;;;;358.48;318.98;;;;;;;14.07;93.54;102393.78;5019380;28;20091;-36
2021/09/22 00:37:30;;;;;;;361.58;320.52;;;;;;;14.05;93.85;102387.69;5014438;28;20564;-36
2021/09/22 00:39:56;;;;;;;358.40;319.13;;;;;;;14.04;93.98;102391.38;5015226;28;20040;-36
2021/09/22 00:42:22;;;;;;;360.13;320.27;;;;;;;14.03;93.84;102386.16;5018162;28;20045;-37
2021/09/22 00:44:48;;;;;;;363.33;322.25;;;;;;;14.00;93.85;102387.31;5049282;28;20426;-36
2021/09/22 00:47:14;;;;;;;361.75;321.95;;;;;;;13.96;94.06;102385.94;5036842;28;20033;-36
2021/09/22 00:49:40;;;;;;;358.85;319.35;;;;;;;13.94;94.24;102382.53;5016612;28;20037;-36
2021/09/22 00:52:06;;;;;;;361.33;321.88;;;;;;;13.95;94.33;102381.53;5050503;28;20040;-36
2021/09/22 00:54:32;;;;;;;359.30;319.55;;;;;;;13.92;94.26;102376.44;5017448;28;20036;-36
2021/09/22 00:56:58;;;;;;;359.23;319.92;;;;;;;13.93;94.04;102370.03;5045331;28;20429;-35
2021/09/22 00:59:24;;;;;;;359.17;319.55;;;;;;;13.92;94.46;102368.34;5051009;28;20106;-36
2021/09/22 01:01:50;;;;;;;360.85;321.02;;;;;;;13.91;94.42;102369.31;5019182;28;20450;-36
2021/09/22 01:04:16;;;;;;;361.55;321.92;;;;;;;13.88;94.28;102375.06;5032610;28;20131;-36
2021/09/22 01:06:43;;;;;;;360.98;321.30;;;;;;;13.85;94.37;102378.06;5056516;28;20036;-36
2021/09/22 01:09:09;;;;;;;361.55;322.02;;;;;;;13.77;94.58;102364.50;5030782;28;20398;-35
2021/09/22 01:11:35;;;;;;;361.25;321.65;;;;;;;13.72;94.85;102362.25;5033021;28;20039;-36
2021/09/22 01:14:01;;;;;;;361.27;321.85;;;;;;;13.72;94.92;102364.97;5010903;28;20033;-36
2021/09/22 01:16:27;;;;;;;361.58;322.27;;;;;;;13.73;94.89;102366.66;5053020;28;20032;-36
2021/09/22 01:18:53;;;;;;;360.65;320.98;;;;;;;13.74;94.75;102365.66;5017669;28;20033;-36
2021/09/22 01:21:20;;;;;;;358.88;319.92;;;;;;;13.73;94.44;102361.25;5017334;28;20037;-35
2021/09/22 01:23:49;;;;;;;358.35;319.23;;;;;;;13.71;94.86;102362.44;5042047;28;20028;-38
2021/09/22 01:26:14;;;;;;;360.67;320.92;;;;;;;13.71;94.81;102368.69;5053000;28;20177;-36
2021/09/22 01:28:45;;;;;;;359.98;320.55;;;;;;;13.75;94.88;102369.22;5014803;28;20625;-36
2021/09/22 01:31:11;;;;;;;361.25;321.33;;;;;;;13.76;94.34;102363.66;5013076;28;20098;-37
2021/09/22 01:33:36;;;;;;;360.40;321.05;;;;;;;13.77;94.50;102356.38;5018477;28;20039;-36
2021/09/22 01:36:02;;;;;;;356.92;318.30;;;;;;;13.78;94.27;102356.22;5052368;28;20033;-36
2021/09/22 01:38:29;;;;;;;357.48;318.58;;;;;;;13.79;94.10;102357.94;5016453;28;20060;-36
2021/09/22 01:41:04;;;;;;;358.10;319.15;;;;;;;13.80;93.99;102353.38;5019560;28;20485;-36
2021/09/22 01:43:31;;;;;;;359.80;320.73;;;;;;;13.78;93.96;102344.56;5014720;28;20041;-36
2021/09/22 01:45:58;;;;;;;361.77;321.90;;;;;;;13.78;93.91;102350.81;5045990;28;20377;-36
2021/09/22 01:48:23;;;;;;;362.38;322.83;;;;;;;13.78;94.06;102350.81;5033716;28;20477;-36
2021/09/22 01:50:50;;;;;;;358.98;319.85;;;;;;;13.78;93.77;102348.09;5012996;28;20029;-36
2021/09/22 01:53:16;;;;;;;358.05;318.75;;;;;;;13.78;94.10;102347.25;5034884;28;20397;-36
2021/09/22 01:55:42;;;;;;;357.42;318.58;;;;;;;13.77;94.11;102340.16;5034040;28;20457;-36
2021/09/22 01:58:07;;;;;;;359.02;319.77;;;;;;;13.72;94.09;102339.78;5012075;28;20033;-36
2021/09/22 02:00:33;;;;;;;357.90;319.08;;;;;;;13.73;94.14;102336.91;5017597;28;20036;-36
2021/09/22 02:02:59;;;;;;;359.85;320.83;;;;;;;13.68;94.47;102323.06;5040446;28;20033;-36
2021/09/22 02:05:25;;;;;;;361.92;322.52;;;;;;;13.76;94.01;102333.06;5050841;28;20458;-36
2021/09/22 02:07:51;;;;;;;357.02;318.27;;;;;;;13.76;94.32;102333.94;5049340;28;20064;-35
2021/09/22 02:10:17;;;;;;;357.70;318.67;;;;;;;13.74;94.46;102321.56;5017668;28;20075;-36
2021/09/22 02:12:43;;;;;;;356.05;317.55;;;;;;;13.74;94.60;102321.56;5021878;28;20146;-36
2021/09/22 02:15:09;;;;;;;359.80;320.48;;;;;;;13.73;94.52;102326.09;5048004;28;20032;-36
2021/09/22 02:17:38;;;;;;;359.70;320.45;;;;;;;13.70;94.65;102328.28;5015744;28;20042;-35
2021/09/22 02:20:05;;;;;;;359.58;320.27;;;;;;;13.70;94.93;102323.72;5033450;28;20474;-36
2021/09/22 02:22:30;;;;;;;359.60;320.42;;;;;;;13.69;95.24;102330.16;5015315;28;20033;-35
2021/09/22 02:24:56;;;;;;;358.65;319.38;;;;;;;13.70;94.79;102322.88;5051764;28;20082;-36
2021/09/22 02:27:22;;;;;;;361.60;322.15;;;;;;;13.63;94.93;102312.72;5031576;28;20242;-36
2021/09/22 02:29:48;;;;;;;360.88;321.35;;;;;;;13.69;95.35;102313.94;5052729;28;20548;-36
2021/09/22 02:32:15;;;;;;;359.42;320.20;;;;;;;13.69;95.33;102302.28;5049785;28;20037;-36
2021/09/22 02:34:41;;;;;;;357.52;318.52;;;;;;;13.68;95.36;102297.84;5015663;28;20036;-36
2021/09/22 02:37:07;;;;;;;358.88;319.55;;;;;;;13.68;95.60;102297.84;5025904;28;20382;-36
2021/09/22 02:39:33;;;;;;;358.30;319.23;;;;;;;13.67;95.32;102291.59;5031041;28;20028;-36
2021/09/22 02:42:01;;;;;;;364.15;324.27;;;;;;;13.67;95.52;102297.00;5014196;28;20486;-36
2021/09/22 02:44:27;;;;;;;365.10;325.15;;;;;;;13.66;95.68;102289.91;5029528;28;20500;-36
2021/09/22 02:46:53;;;;;;;362.70;323.23;;;;;;;13.67;95.95;102293.47;5026491;28;20037;-36
2021/09/22 02:49:20;;;;;;;357.33;318.10;;;;;;;13.66;95.58;102295.31;5051098;28;20629;-36
2021/09/22 02:51:46;;;;;;;359.83;320.83;;;;;;;13.65;95.60;102296.31;5042651;28;20032;-36
2021/09/22 02:54:11;;;;;;;362.30;322.23;;;;;;;13.66;95.63;102302.59;5017040;28;20044;-36
2021/09/22 02:56:37;;;;;;;365.95;325.80;;;;;;;13.64;95.76;102300.03;5024564;28;20033;-36
2021/09/22 02:59:03;;;;;;;364.48;324.58;;;;;;;13.63;95.88;102298.34;5034816;28;20036;-36
2021/09/22 03:01:29;;;;;;;364.33;324.55;;;;;;;13.63;95.67;102301.06;5015716;28;20463;-35
2021/09/22 03:03:55;;;;;;;358.38;319.08;;;;;;;13.63;95.50;102301.06;5018616;28;20496;-36
2021/09/22 03:06:21;;;;;;;356.23;317.63;;;;;;;13.64;95.62;102300.88;5019213;28;20047;-36
2021/09/22 03:08:47;;;;;;;357.88;318.77;;;;;;;13.65;95.06;102290.91;5022502;28;20121;-36
2021/09/22 03:11:12;;;;;;;358.95;320.05;;;;;;;13.64;94.78;102286.53;5033929;28;20066;-36
2021/09/22 03:13:38;;;;;;;358.27;319.30;;;;;;;13.57;94.78;102269.22;5014053;28;20045;-36
2021/09/22 03:16:06;;;;;;;361.88;322.63;;;;;;;13.66;94.36;102271.00;5050535;28;20171;-35
2021/09/22 03:18:32;;;;;;;360.40;321.35;;;;;;;13.67;94.09;102271.84;5047726;28;20359;-36
2021/09/22 03:20:58;;;;;;;358.67;319.73;;;;;;;13.67;93.77;102274.53;5050386;28;20043;-36
2021/09/22 03:23:24;;;;;;;357.98;319.10;;;;;;;13.68;93.74;102270.81;5043762;28;20033;-36
2021/09/22 03:25:50;;;;;;;358.42;319.25;;;;;;;13.68;93.73;102269.00;5030974;28;20116;-36
2021/09/22 03:28:16;;;;;;;358.63;319.50;;;;;;;13.68;93.71;102268.13;5044370;28;20132;-36
2021/09/22 03:30:41;;;;;;;360.48;321.20;;;;;;;13.70;93.46;102260.72;5013209;28;20045;-35
2021/09/22 03:33:07;;;;;;;360.17;320.67;;;;;;;13.68;93.30;102262.72;5050378;28;20089;-36
2021/09/22 03:35:33;;;;;;;358.23;318.90;;;;;;;13.68;93.01;102262.72;5020530;28;20730;-36
2021/09/22 03:37:59;;;;;;;359.15;320.42;;;;;;;13.61;93.16;102257.97;5043546;28;20032;-36
2021/09/22 03:40:25;;;;;;;356.77;318.20;;;;;;;13.66;93.09;102254.78;5055681;28;20040;-36
2021/09/22 03:42:55;;;;;;;353.90;315.38;;;;;;;13.66;92.97;102254.78;5015241;28;20038;-35
2021/09/22 03:45:21;;;;;;;355.98;316.92;;;;;;;13.65;92.58;102263.88;5047839;28;20406;-36
2021/09/22 03:47:46;;;;;;;354.60;315.95;;;;;;;13.66;92.51;102262.91;5016893;28;20086;-36
2021/09/22 03:50:12;;;;;;;358.63;319.50;;;;;;;13.68;92.01;102262.72;5016288;28;20037;-35
2021/09/22 03:52:38;;;;;;;358.15;319.05;;;;;;;13.70;91.29;102263.41;5016377;28;20037;-36
2021/09/22 03:55:04;;;;;;;357.25;318.50;;;;;;;13.70;90.96;102266.13;5029540;28;20041;-36
2021/09/22 03:57:30;;;;;;;355.33;316.73;;;;;;;13.71;90.69;102259.72;5014428;28;20040;-35
2021/09/22 03:59:56;;;;;;;358.92;319.73;;;;;;;13.71;90.36;102254.31;5017276;28;20359;-36
2021/09/22 04:02:22;;;;;;;353.73;315.55;;;;;;;13.70;90.02;102255.31;5031263;28;20068;-36
2021/09/22 04:04:47;;;;;;;354.65;315.73;;;;;;;13.69;90.33;102250.91;5031492;28;20079;-35
2021/09/22 04:07:13;;;;;;;352.13;314.25;;;;;;;13.64;90.18;102236.00;5047549;28;20037;-35
2021/09/22 04:09:39;;;;;;;351.38;313.63;;;;;;;13.72;89.96;102253.28;5049627;28;20024;-36
2021/09/22 04:12:05;;;;;;;354.52;315.88;;;;;;;13.73;89.47;102255.81;5019438;28;20140;-36
2021/09/22 04:14:32;;;;;;;350.70;312.73;;;;;;;13.73;89.10;102250.41;5039908;28;20037;-35
2021/09/22 04:16:58;;;;;;;352.95;314.67;;;;;;;13.72;89.03;102246.03;5030027;28;20101;-35
2021/09/22 04:19:23;;;;;;;353.40;315.23;;;;;;;13.78;88.76;102253.47;5045179;28;20474;-36
2021/09/22 04:21:49;;;;;;;353.80;315.45;;;;;;;13.79;88.73;102259.75;5022183;28;20033;-36
2021/09/22 04:24:15;;;;;;;354.73;316.17;;;;;;;13.78;88.63;102248.06;5006672;28;20048;-36
2021/09/22 04:26:41;;;;;;;353.67;315.10;;;;;;;13.79;88.21;102248.94;5014203;28;20132;-36
2021/09/22 04:29:09;;;;;;;351.10;313.05;;;;;;;13.78;88.22;102250.78;5046252;28;20029;-35
2021/09/22 04:31:37;;;;;;;352.23;313.52;;;;;;;13.79;88.47;102248.94;5015240;28;20033;-35
2021/09/22 04:34:04;;;;;;;348.42;310.50;;;;;;;13.76;88.69;102251.94;5041236;28;20044;-36
2021/09/22 04:36:29;;;;;;;345.90;308.45;;;;;;;13.76;89.22;102252.81;5048373;28;20072;-35
2021/09/22 04:38:55;;;;;;;348.83;310.73;;;;;;;13.75;89.31;102250.25;5011392;28;20029;-35
2021/09/22 04:41:21;;;;;;;351.10;313.25;;;;;;;13.74;89.71;102240.47;5024743;28;20025;-35
2021/09/22 04:43:48;;;;;;;350.80;312.60;;;;;;;13.74;89.99;102237.78;5031749;28;20037;-36
2021/09/22 04:46:17;;;;;;;351.08;312.40;;;;;;;13.72;90.17;102237.91;5015558;28;20037;-36
2021/09/22 04:48:43;;;;;;;351.05;312.58;;;;;;;13.72;90.30;102242.47;5013551;28;20045;-35
2021/09/22 04:51:09;;;;;;;350.90;312.63;;;;;;;13.72;90.52;102242.47;5013155;28;20040;-36
2021/09/22 04:53:35;;;;;;;350.10;311.95;;;;;;;13.70;90.44;102242.63;5032993;28;20501;-35
2021/09/22 04:56:03;;;;;;;347.70;309.70;;;;;;;13.70;90.78;102245.31;5017094;28;20540;-36
2021/09/22 04:58:29;;;;;;;347.70;309.90;;;;;;;13.70;91.04;102239.09;5008975;28;20042;-36
2021/09/22 05:00:59;;;;;;;349.80;311.83;;;;;;;13.64;90.98;102236.00;5014855;28;20094;-36
2021/09/22 05:03:25;;;;;;;348.75;310.55;;;;;;;13.66;91.06;102237.72;5040262;28;20040;-36
2021/09/22 05:05:50;;;;;;;350.38;311.90;;;;;;;13.60;91.14;102228.38;5029618;28;20032;-36
2021/09/22 05:08:16;;;;;;;351.75;313.58;;;;;;;13.64;91.37;102233.31;5042972;28;20090;-36
2021/09/22 05:10:42;;;;;;;351.30;313.33;;;;;;;13.59;91.24;102227.53;5042115;28;20021;-35
2021/09/22 05:13:07;;;;;;;352.17;314.05;;;;;;;13.61;91.41;102236.34;5013450;28;20060;-36
2021/09/22 05:15:33;;;;;;;353.45;314.83;;;;;;;13.61;91.26;102232.78;5013828;28;20047;-36
2021/09/22 05:17:59;;;;;;;349.05;311.00;;;;;;;13.61;91.23;102235.50;5044272;28;20063;-37
2021/09/22 05:20:24;;;;;;;283.77;254.15;;;;;;;13.60;91.02;102228.38;5006350;28;20402;-35
2021/09/22 05:22:50;;;;;;;312.77;279.20;;;;;;;13.60;91.36;102226.53;5027616;28;20415;-35
2021/09/22 05:26:08;;;;;;;;;;;;;;;13.59;91.31;102222.13;5158595;27;20397;-42
2021/09/22 05:28:36;;;;;;;551.40;495.70;;;;;;;13.56;91.39;102216.22;5158312;27;20045;-42
2021/09/22 05:31:01;;;;;;;;;;;;;;;13.54;91.71;102219.06;5140747;27;20479;-38
2021/09/22 05:33:27;;;;;;;;;;;;;;;13.52;91.52;102223.78;5168568;27;20037;-40
2021/09/22 05:35:52;;;;;;;;;;;;;;;13.51;91.92;102210.44;5126595;27;19911;-41
2021/09/22 05:38:18;;;;;;;;;;;;;;;13.50;91.83;102216.84;5156498;27;20118;-38
2021/09/22 05:40:44;;;;;;;;;;;;;;;13.49;91.89;102215.13;5156268;27;19994;-39
2021/09/22 05:43:10;;;;;;;;;;;;;;;13.49;91.89;102210.56;5153471;27;19916;-41
2021/09/22 05:45:35;;;;;;;10.75;3.58;;;;;;;13.50;91.72;102227.66;5154378;27;19919;-41
2021/09/22 05:48:01;;;;;;;309.90;242.70;;;;;;;13.48;91.83;102211.59;5148634;27;20022;-41
2021/09/22 05:50:27;;;;;;;;;;;;;;;13.48;91.82;102208.88;5146968;27;20093;-41
2021/09/22 05:52:52;;;;;;;;;;;;;;;13.49;91.77;102207.03;5123042;27;20445;-40
2021/09/22 05:55:18;;;;;;;;;;;;;;;13.48;91.24;102200.78;5153825;27;20240;-41
2021/09/22 05:57:43;;;;;;;;;;;;;;;13.47;91.38;102201.81;5135051;27;19975;-41
2021/09/22 06:00:09;;;;;;;;;;;;;;;13.47;91.36;102198.22;5148422;27;20034;-40
2021/09/22 06:02:34;;;;;;;;;;;;;;;13.45;91.49;102186.75;5151734;27;20333;-42
2021/09/22 06:05:00;;;;;;;;;;;;;;;13.45;90.89;102189.47;5166226;27;19914;-39
2021/09/22 06:07:25;;;;;;;;;;;;;;;13.46;91.08;102197.38;5116548;27;19921;-41
2021/09/22 06:09:51;;;;;;;;;;;;;;;13.49;90.75;102204.31;5133699;27;20014;-38
2021/09/22 06:12:17;;;;;;;;;;;;;;;13.50;91.20;102208.75;5158870;27;19954;-42
2021/09/22 06:14:43;;;;;;;;;;;;;;;13.50;90.63;102208.75;5148410;27;20074;-40
2021/09/22 06:17:08;;;;;;;;;;;;;;;13.50;90.70;102206.03;5127220;27;20153;-42
2021/09/22 06:19:34;;;;;;;;;;;;;;;13.50;90.88;102216.84;5151731;27;20037;-40
2021/09/22 06:22:02;;;;;;;;;;;;;;;13.50;90.81;102212.28;5133178;27;19923;-42
2021/09/22 06:24:27;;;;;;;;;;;;;;;13.50;91.14;102214.16;5148171;27;20257;-37
2021/09/22 06:26:53;;;;;;;;;;;;;;;13.46;91.27;102202.78;5135160;27;20255;-40
2021/09/22 06:29:18;;;;;;;;;;;;;;;13.41;91.44;102210.53;5147362;27;20298;-41
2021/09/22 06:31:44;;;;;;;;;;;;;;;13.42;91.54;102212.25;5141854;27;19919;-42
2021/09/22 06:34:10;;;;;;;;;;;;;;;13.41;91.88;102213.22;5149577;27;24073;-41
2021/09/22 06:36:35;;;;;;;;;;;;;;;13.43;91.66;102199.56;5127185;27;20216;-39
2021/09/22 06:39:01;;;;;;;;;;;;;;;13.43;91.74;102200.41;5136437;27;20352;-40
2021/09/22 06:41:30;;;;;;;;;;;;;;;13.45;91.70;102198.41;5135996;27;20329;-40
2021/09/22 06:43:56;;;;;;;;;;;;;;;13.47;91.66;102199.09;5117728;27;21745;-42
2021/09/22 06:46:21;;;;;;;;;;;;;;;13.48;91.77;102203.50;5147752;27;20043;-41
2021/09/22 06:48:47;;;;;;;;;;;;;;;13.50;91.85;102209.59;5133817;27;20047;-43
2021/09/22 06:51:16;;;;;;;;;;;;;;;13.54;91.58;102213.66;5140685;27;20042;-41
2021/09/22 06:53:42;;;;;;;5.97;2.42;;;;;;;13.56;91.49;102214.34;5126025;27;19911;-41
2021/09/22 06:56:08;;;;;;;32.25;20.00;;;;;;;13.59;91.13;102211.31;5143596;27;20225;-41
2021/09/22 06:58:33;;;;;;;;;;;;;;;13.66;91.22;102213.41;5131088;27;20068;-41
2021/09/22 07:00:59;;;;;;;;;;;;;;;13.69;91.18;102213.06;5132526;27;20367;-41
2021/09/22 07:03:25;;;;;;;530.28;479.08;;;;;;;13.71;91.13;102217.31;5128492;27;19915;-39
2021/09/22 07:05:50;;;;;;;;;;;;;;;13.75;90.62;102226.78;5152232;27;20403;-41
2021/09/22 07:08:16;;;;;;;;;;;;;;;13.79;90.41;102217.34;5131624;27;20222;-40
2021/09/22 07:10:42;;;;;;;;;;;;;;;13.83;90.03;102218.69;5114746;27;19908;-41
2021/09/22 07:13:10;;;;;;;;;;;;;;;13.90;89.83;102226.19;5130272;27;20383;-38
2021/09/22 07:15:36;;;;;;;;;;;;;;;13.95;89.21;102221.16;5132392;27;19999;-39
2021/09/22 07:18:01;;;;;;;;;;;;;;;13.99;88.95;102215.22;5143693;27;19998;-37
2021/09/22 07:20:27;;;;;;;;;;;;;;;14.01;88.94;102210.50;5140403;27;38175;-40
2021/09/22 07:26:13;;;;;;;;;;;;;;;13.98;88.38;102213.53;5139816;27;19975;-40
2021/09/22 08:36:47;;;;;;;;;;;;;;;15.97;81.92;102230.56;5103579;28;19922;-36
2021/09/22 11:41:35;;;;;;;;;;;;;;;21.50;53.28;102140.38;6205151;22;2106546;-36
2021/09/22 12:02:27;;;;;;;;;;;;;;;22.21;52.77;102137.81;6133615;22;2098102;-37
2021/09/22 12:18:05;;;;;;;;;;;;;;;21.84;54.45;102126.59;6251433;22;20547;-36
2021/09/22 14:02:57;;;;;;;;;;;;;;;20.77;59.89;102043.94;6245852;22;20471;-35
2021/09/22 15:25:00;;;;;;;;;;;;;;;19.93;65.51;101997.06;6268152;22;20369;-36
2021/09/22 17:07:25;;;;;;;;;;;;;;;18.05;74.85;101913.72;6215154;23;20891;-36
2021/09/22 17:10:14;;;;;;;;;;;;;;;17.94;75.37;101909.66;5023017;27;2083547;-35
2021/09/22 17:35:12;;;;;;;;;;;;;;;17.38;78.56;101901.31;6248316;22;20373;-36
2021/09/22 18:18:19;;;;;;;;;;;;;;;16.55;83.22;101868.13;6278535;22;20707;-36
2021/09/22 18:20:46;;;;;;;;;;;;;;;16.44;83.94;101857.75;6225322;22;25052;-35
2021/09/22 18:23:13;;;;;;;;;;;;;;;16.35;84.54;101858.84;6199305;22;20745;-34
2021/09/22 18:25:43;;;;;;;;;;;;;;;16.31;84.63;101858.41;6199980;22;20438;-36
2021/09/22 18:45:25;;;;;;;;;;;;;;;16.23;85.73;101861.19;6278518;22;20359;-35
2021/09/22 18:47:51;;;;;;;;;;;;;;;16.17;86.04;101865.50;6200307;22;20350;-35
2021/09/22 19:10:47;;;;;;;;;;;;;;;15.79;90.11;101837.56;6273063;22;20693;-36
2021/09/22 19:13:14;;;;;;;;;;;;;;;15.73;90.87;101835.59;6217986;22;25077;-35
2021/09/22 19:15:40;;;;;;;;;;;;;;;15.71;91.03;101840.34;6193245;22;25081;-36
2021/09/22 19:21:26;;;;;;;;;;;;;;;15.65;92.02;101836.47;6243364;22;25067;-36
2021/09/22 19:27:32;;;;;;;;;;;;;;;15.60;92.87;101830.75;6270531;22;20469;-36
2021/09/22 19:29:58;;;;;;;;;;;;;;;15.56;93.04;101827.56;6218249;22;20493;-37
2021/09/22 19:32:55;;;;;;;;;;;;;;;15.50;93.79;101822.03;6192143;22;20687;-37
2021/09/22 19:35:21;;;;;;;;;;;;;;;15.46;94.29;101818.84;6214292;22;20724;-37
2021/09/22 19:37:51;;;;;;;;;;;;;;;15.46;94.55;101818.84;6191821;22;20352;-38
2021/09/22 19:40:16;;;;;;;;;;;;;;;15.47;95.06;101809.69;6190017;22;20688;-38
2021/09/22 19:45:46;;;;;;;;;;;;;;;15.48;95.24;101808.69;6237998;22;20340;-34
2021/09/22 19:48:32;;;;;;;;;;;;;;;15.49;95.39;101807.63;6187023;22;20635;-36
2021/09/22 19:51:17;;;;;;;;;;;;;;;15.48;95.65;101802.38;6212085;22;20356;-36
2021/09/22 19:53:43;;;;;;;;;;;;;;;15.45;96.03;101805.47;6211881;22;25060;-38
2021/09/22 19:56:10;;;;;;;;;;;;;;;15.42;96.55;101798.53;6185874;22;25068;-38
2021/09/22 19:58:40;;;;;;;;;;;;;;;15.42;97.22;101801.25;6186175;22;25071;-36
2021/09/22 20:14:46;;;;;;;;;;;;;;;15.37;98.41;101785.56;6262883;22;25081;-37
2021/09/22 20:17:11;;;;;;;;;;;;;;;15.34;98.54;101785.06;6187104;22;20357;-37
2021/09/22 20:26:42;;;;;;;;;;;;;;;15.35;99.27;101770.50;6268553;22;20354;-36
2021/09/22 20:32:52;;;;;;;;;;;;;;;15.40;99.13;101757.25;6262514;22;20364;-36
2021/09/22 20:35:18;;;;;;;;;;;;;;;15.42;99.23;101762.47;6210298;22;20641;-37
2021/09/22 20:37:51;;;;;;;;;;;;;;;15.41;99.24;101761.63;6186654;22;20333;-37
2021/09/22 20:40:19;;;;;;;;;;;;;;;15.42;99.40;101754.34;6185743;22;20640;-37
2021/09/22 20:42:50;;;;;;;;;;;;;;;15.43;99.54;101758.72;6185058;22;25103;-36
2021/09/22 20:45:16;;;;;;;;;;;;;;;15.42;99.40;101748.91;6210585;22;20430;-37
2021/09/22 20:48:02;;;;;;;;;;;;;;;15.38;99.73;101754.72;6186067;22;25081;-38
2021/09/22 20:50:27;;;;;;;;;;;;;;;15.38;99.69;101749.28;6212005;22;20382;-36
2021/09/22 20:52:58;;;;;;;;;;;;;;;15.32;100.00;101746.47;6189012;22;25067;-37
2021/09/22 20:55:24;;;;;;;;;;;;;;;15.38;100.00;101754.72;6214564;22;20351;-38
2021/09/22 21:00:42;;;;;;;;;;;;;;;15.43;100.00;101750.59;6239284;22;20548;-37
2021/09/22 21:06:17;;;;;;;;;;;;;;;15.45;100.00;101754.81;6264804;22;20350;-37
2021/09/22 21:22:33;;;;;;;;;;;;;;;15.57;100.00;101775.03;6259864;22;20385;-37
2021/09/22 21:24:59;;;;;;;;;;;;;;;15.53;100.00;101751.19;6184055;22;20349;-40
2021/09/22 21:27:32;;;;;;;;;;;;;;;15.59;100.00;101761.31;6184454;22;25067;-37
